sensor_id;sensor_type;location;lat;lon;timestamp;temperature;humidity
14411;DHT22;7290;50.854;4.354;2022-09-09T00:01:56;17.80;99.90
14411;DHT22;7290;50.854;4.354;2022-09-09T00:04:28;17.80;99.90
14411;DHT22;7290;50.854;4.354;2022-09-09T00:07:03;17.80;99.90
14411;DHT22;7290;50.854;4.354;2022-09-09T00:09:32;17.80;99.90
14411;DHT22;7290;50.854;4.354;2022-09-09T00:12:10;17.80;99.90
14411;DHT22;7290;50.854;4.354;2022-09-09T00:14:43;17.60;99.90
14411;DHT22;7290;50.854;4.354;2022-09-09T00:17:25;17.60;99.90
14411;DHT22;7290;50.854;4.354;2022-09-09T00:20:01;17.50;99.90
14411;DHT22;7290;50.854;4.354;2022-09-09T00:22:30;17.60;99.90
14411;DHT22;7290;50.854;4.354;2022-09-09T00:25:05;17.70;99.90
14411;DHT22;7290;50.854;4.354;2022-09-09T00:27:41;17.50;99.90
14411;DHT22;7290;50.854;4.354;2022-09-09T00:30:18;17.60;99.90
14411;DHT22;7290;50.854;4.354;2022-09-09T00:32:46;17.70;99.90
14411;DHT22;7290;50.854;4.354;2022-09-09T00:35:17;17.70;99.90
14411;DHT22;7290;50.854;4.354;2022-09-09T00:37:44;17.80;99.90
14411;DHT22;7290;50.854;4.354;2022-09-09T00:40:22;17.80;99.90
14411;DHT22;7290;50.854;4.354;2022-09-09T00:42:49;17.70;99.90
14411;DHT22;7290;50.854;4.354;2022-09-09T00:45:39;17.70;99.90
14411;DHT22;7290;50.854;4.354;2022-09-09T00:48:10;17.80;99.90
14411;DHT22;7290;50.854;4.354;2022-09-09T00:50:45;17.90;99.90
14411;DHT22;7290;50.854;4.354;2022-09-09T00:53:22;17.80;99.90
14411;DHT22;7290;50.854;4.354;2022-09-09T00:55:57;17.70;99.90
14411;DHT22;7290;50.854;4.354;2022-09-09T00:58:26;17.80;99.90
14411;DHT22;7290;50.854;4.354;2022-09-09T01:00:57;17.90;99.90
14411;DHT22;7290;50.854;4.354;2022-09-09T01:03:34;17.90;99.90
14411;DHT22;7290;50.854;4.354;2022-09-09T01:06:02;17.90;99.90
14411;DHT22;7290;50.854;4.354;2022-09-09T01:08:48;17.80;99.90
14411;DHT22;7290;50.854;4.354;2022-09-09T01:11:21;17.70;99.90
14411;DHT22;7290;50.854;4.354;2022-09-09T01:13:53;17.70;99.90
14411;DHT22;7290;50.854;4.354;2022-09-09T01:16:22;17.80;99.90
14411;DHT22;7290;50.854;4.354;2022-09-09T01:18:51;17.80;99.90
14411;DHT22;7290;50.854;4.354;2022-09-09T01:21:25;17.80;99.90
14411;DHT22;7290;50.854;4.354;2022-09-09T01:24:19;17.90;99.90
14411;DHT22;7290;50.854;4.354;2022-09-09T01:26:47;17.80;99.90
14411;DHT22;7290;50.854;4.354;2022-09-09T01:29:15;17.80;99.90
14411;DHT22;7290;50.854;4.354;2022-09-09T01:31:52;17.70;99.90
14411;DHT22;7290;50.854;4.354;2022-09-09T01:34:19;17.60;99.90
14411;DHT22;7290;50.854;4.354;2022-09-09T01:36:48;17.60;99.90
14411;DHT22;7290;50.854;4.354;2022-09-09T01:39:16;17.60;99.90
14411;DHT22;7290;50.854;4.354;2022-09-09T01:41:42;17.60;99.90
14411;DHT22;7290;50.854;4.354;2022-09-09T01:44:10;17.60;99.90
14411;DHT22;7290;50.854;4.354;2022-09-09T01:46:36;17.60;99.90
14411;DHT22;7290;50.854;4.354;2022-09-09T01:49:05;17.60;99.90
14411;DHT22;7290;50.854;4.354;2022-09-09T01:51:32;17.60;99.90
14411;DHT22;7290;50.854;4.354;2022-09-09T01:53:59;17.60;99.90
14411;DHT22;7290;50.854;4.354;2022-09-09T01:56:35;17.60;99.90
14411;DHT22;7290;50.854;4.354;2022-09-09T01:59:24;17.60;99.90
14411;DHT22;7290;50.854;4.354;2022-09-09T02:02:03;17.50;99.90
14411;DHT22;7290;50.854;4.354;2022-09-09T02:04:38;17.40;99.90
14411;DHT22;7290;50.854;4.354;2022-09-09T02:07:10;17.40;99.90
14411;DHT22;7290;50.854;4.354;2022-09-09T02:09:38;17.50;99.90
14411;DHT22;7290;50.854;4.354;2022-09-09T02:12:11;17.40;99.90
14411;DHT22;7290;50.854;4.354;2022-09-09T02:14:42;17.40;99.90
14411;DHT22;7290;50.854;4.354;2022-09-09T02:17:15;17.30;99.90
14411;DHT22;7290;50.854;4.354;2022-09-09T02:19:44;17.20;99.90
14411;DHT22;7290;50.854;4.354;2022-09-09T02:22:12;17.20;99.90
14411;DHT22;7290;50.854;4.354;2022-09-09T02:24:39;17.30;99.90
14411;DHT22;7290;50.854;4.354;2022-09-09T02:27:07;17.40;99.90
14411;DHT22;7290;50.854;4.354;2022-09-09T02:29:37;17.40;99.90
14411;DHT22;7290;50.854;4.354;2022-09-09T02:32:08;17.40;99.90
14411;DHT22;7290;50.854;4.354;2022-09-09T02:34:36;17.40;99.90
14411;DHT22;7290;50.854;4.354;2022-09-09T02:37:07;17.40;99.90
14411;DHT22;7290;50.854;4.354;2022-09-09T02:39:34;17.50;99.90
14411;DHT22;7290;50.854;4.354;2022-09-09T02:42:00;17.50;99.90
14411;DHT22;7290;50.854;4.354;2022-09-09T02:44:26;17.50;99.90
14411;DHT22;7290;50.854;4.354;2022-09-09T02:47:07;17.40;99.90
14411;DHT22;7290;50.854;4.354;2022-09-09T02:49:43;17.40;99.90
14411;DHT22;7290;50.854;4.354;2022-09-09T02:52:18;17.40;99.90
14411;DHT22;7290;50.854;4.354;2022-09-09T02:54:48;17.40;99.90
14411;DHT22;7290;50.854;4.354;2022-09-09T02:57:19;17.40;99.90
14411;DHT22;7290;50.854;4.354;2022-09-09T02:59:46;17.50;99.90
14411;DHT22;7290;50.854;4.354;2022-09-09T03:02:13;17.50;99.90
14411;DHT22;7290;50.854;4.354;2022-09-09T03:04:40;17.50;99.90
14411;DHT22;7290;50.854;4.354;2022-09-09T03:07:07;17.40;99.90
14411;DHT22;7290;50.854;4.354;2022-09-09T03:09:33;17.40;99.90
14411;DHT22;7290;50.854;4.354;2022-09-09T03:11:59;17.30;99.90
14411;DHT22;7290;50.854;4.354;2022-09-09T03:14:26;17.30;99.90
14411;DHT22;7290;50.854;4.354;2022-09-09T03:16:52;17.30;99.90
14411;DHT22;7290;50.854;4.354;2022-09-09T03:19:19;17.30;99.90
14411;DHT22;7290;50.854;4.354;2022-09-09T03:21:46;17.20;99.90
14411;DHT22;7290;50.854;4.354;2022-09-09T03:24:12;17.20;99.90
14411;DHT22;7290;50.854;4.354;2022-09-09T03:26:38;17.10;99.90
14411;DHT22;7290;50.854;4.354;2022-09-09T03:29:05;17.10;99.90
14411;DHT22;7290;50.854;4.354;2022-09-09T03:31:32;17.10;99.90
14411;DHT22;7290;50.854;4.354;2022-09-09T03:33:58;17.10;99.90
14411;DHT22;7290;50.854;4.354;2022-09-09T03:36:25;17.20;99.90
14411;DHT22;7290;50.854;4.354;2022-09-09T03:38:52;17.20;99.90
14411;DHT22;7290;50.854;4.354;2022-09-09T03:41:18;17.10;99.90
14411;DHT22;7290;50.854;4.354;2022-09-09T03:43:44;17.10;99.90
14411;DHT22;7290;50.854;4.354;2022-09-09T03:46:10;17.10;99.90
14411;DHT22;7290;50.854;4.354;2022-09-09T03:48:36;17.20;99.90
14411;DHT22;7290;50.854;4.354;2022-09-09T03:51:03;17.20;99.90
14411;DHT22;7290;50.854;4.354;2022-09-09T03:53:30;17.20;99.90
14411;DHT22;7290;50.854;4.354;2022-09-09T03:55:57;17.20;99.90
14411;DHT22;7290;50.854;4.354;2022-09-09T03:58:26;17.10;99.90
14411;DHT22;7290;50.854;4.354;2022-09-09T04:00:56;17.00;99.90
14411;DHT22;7290;50.854;4.354;2022-09-09T04:03:23;17.00;99.90
14411;DHT22;7290;50.854;4.354;2022-09-09T04:05:50;17.00;99.90
14411;DHT22;7290;50.854;4.354;2022-09-09T04:08:17;17.00;99.90
14411;DHT22;7290;50.854;4.354;2022-09-09T04:10:45;17.10;99.90
14411;DHT22;7290;50.854;4.354;2022-09-09T04:13:12;17.20;99.90
14411;DHT22;7290;50.854;4.354;2022-09-09T04:15:41;17.30;99.90
14411;DHT22;7290;50.854;4.354;2022-09-09T04:18:07;17.30;99.90
14411;DHT22;7290;50.854;4.354;2022-09-09T04:20:34;17.20;99.90
14411;DHT22;7290;50.854;4.354;2022-09-09T04:23:00;17.00;99.90
14411;DHT22;7290;50.854;4.354;2022-09-09T04:25:26;17.00;99.90
14411;DHT22;7290;50.854;4.354;2022-09-09T04:27:54;17.00;99.90
14411;DHT22;7290;50.854;4.354;2022-09-09T04:30:20;16.90;99.90
14411;DHT22;7290;50.854;4.354;2022-09-09T04:32:46;16.90;99.90
14411;DHT22;7290;50.854;4.354;2022-09-09T04:35:13;16.90;99.90
14411;DHT22;7290;50.854;4.354;2022-09-09T04:37:39;16.80;99.90
14411;DHT22;7290;50.854;4.354;2022-09-09T04:40:06;16.80;99.90
14411;DHT22;7290;50.854;4.354;2022-09-09T04:42:35;16.80;99.90
14411;DHT22;7290;50.854;4.354;2022-09-09T04:45:02;16.80;99.90
14411;DHT22;7290;50.854;4.354;2022-09-09T04:47:28;16.80;99.90
14411;DHT22;7290;50.854;4.354;2022-09-09T04:49:54;16.70;99.90
14411;DHT22;7290;50.854;4.354;2022-09-09T04:52:20;16.80;99.90
14411;DHT22;7290;50.854;4.354;2022-09-09T04:54:46;16.90;99.90
14411;DHT22;7290;50.854;4.354;2022-09-09T04:57:13;16.90;99.90
14411;DHT22;7290;50.854;4.354;2022-09-09T04:59:39;16.80;99.90
14411;DHT22;7290;50.854;4.354;2022-09-09T05:02:06;16.90;99.90
14411;DHT22;7290;50.854;4.354;2022-09-09T05:04:32;16.90;99.90
14411;DHT22;7290;50.854;4.354;2022-09-09T05:06:58;16.90;99.90
14411;DHT22;7290;50.854;4.354;2022-09-09T05:09:24;16.90;99.90
14411;DHT22;7290;50.854;4.354;2022-09-09T05:11:50;17.00;99.90
14411;DHT22;7290;50.854;4.354;2022-09-09T05:14:17;16.90;99.90
14411;DHT22;7290;50.854;4.354;2022-09-09T05:16:44;16.90;99.90
14411;DHT22;7290;50.854;4.354;2022-09-09T05:19:11;17.00;99.90
14411;DHT22;7290;50.854;4.354;2022-09-09T05:21:37;17.00;99.90
14411;DHT22;7290;50.854;4.354;2022-09-09T05:24:04;17.00;99.90
14411;DHT22;7290;50.854;4.354;2022-09-09T05:26:30;17.10;99.90
14411;DHT22;7290;50.854;4.354;2022-09-09T05:28:57;17.10;99.90
14411;DHT22;7290;50.854;4.354;2022-09-09T05:31:24;17.10;99.90
14411;DHT22;7290;50.854;4.354;2022-09-09T05:33:54;17.20;99.90
14411;DHT22;7290;50.854;4.354;2022-09-09T05:36:21;17.40;99.90
14411;DHT22;7290;50.854;4.354;2022-09-09T05:38:48;17.50;99.90
14411;DHT22;7290;50.854;4.354;2022-09-09T05:41:15;17.60;99.90
14411;DHT22;7290;50.854;4.354;2022-09-09T05:43:43;17.60;99.90
14411;DHT22;7290;50.854;4.354;2022-09-09T05:46:11;17.60;99.90
14411;DHT22;7290;50.854;4.354;2022-09-09T05:48:38;17.60;99.90
14411;DHT22;7290;50.854;4.354;2022-09-09T05:51:07;17.50;99.90
14411;DHT22;7290;50.854;4.354;2022-09-09T05:53:34;17.60;99.90
14411;DHT22;7290;50.854;4.354;2022-09-09T05:56:02;17.60;99.90
14411;DHT22;7290;50.854;4.354;2022-09-09T05:58:29;17.90;99.90
14411;DHT22;7290;50.854;4.354;2022-09-09T06:01:01;17.60;99.90
14411;DHT22;7290;50.854;4.354;2022-09-09T06:03:27;17.50;99.90
14411;DHT22;7290;50.854;4.354;2022-09-09T06:05:57;17.50;99.90
14411;DHT22;7290;50.854;4.354;2022-09-09T06:08:24;17.60;99.90
14411;DHT22;7290;50.854;4.354;2022-09-09T06:10:51;17.70;99.90
14411;DHT22;7290;50.854;4.354;2022-09-09T06:13:17;17.80;99.90
14411;DHT22;7290;50.854;4.354;2022-09-09T06:15:49;17.80;99.90
14411;DHT22;7290;50.854;4.354;2022-09-09T06:18:15;18.10;99.90
14411;DHT22;7290;50.854;4.354;2022-09-09T06:20:53;18.50;99.90
14411;DHT22;7290;50.854;4.354;2022-09-09T06:23:19;18.50;99.90
14411;DHT22;7290;50.854;4.354;2022-09-09T06:25:46;18.30;99.90
14411;DHT22;7290;50.854;4.354;2022-09-09T06:28:13;18.10;99.90
14411;DHT22;7290;50.854;4.354;2022-09-09T06:30:39;18.30;99.90
14411;DHT22;7290;50.854;4.354;2022-09-09T06:33:06;18.30;99.90
14411;DHT22;7290;50.854;4.354;2022-09-09T06:35:32;18.30;99.90
14411;DHT22;7290;50.854;4.354;2022-09-09T06:37:58;18.30;99.90
14411;DHT22;7290;50.854;4.354;2022-09-09T06:40:24;18.10;99.90
14411;DHT22;7290;50.854;4.354;2022-09-09T06:42:50;18.00;99.90
14411;DHT22;7290;50.854;4.354;2022-09-09T06:45:17;18.00;99.90
14411;DHT22;7290;50.854;4.354;2022-09-09T06:47:43;17.80;99.90
14411;DHT22;7290;50.854;4.354;2022-09-09T06:50:10;17.70;99.90
14411;DHT22;7290;50.854;4.354;2022-09-09T06:52:37;17.70;99.90
14411;DHT22;7290;50.854;4.354;2022-09-09T06:55:03;17.60;99.90
14411;DHT22;7290;50.854;4.354;2022-09-09T06:57:29;17.70;99.90
14411;DHT22;7290;50.854;4.354;2022-09-09T06:59:55;18.00;99.90
14411;DHT22;7290;50.854;4.354;2022-09-09T07:02:22;18.20;99.90
14411;DHT22;7290;50.854;4.354;2022-09-09T07:04:49;18.20;99.90
14411;DHT22;7290;50.854;4.354;2022-09-09T07:07:16;18.00;99.90
14411;DHT22;7290;50.854;4.354;2022-09-09T07:09:43;17.90;99.90
14411;DHT22;7290;50.854;4.354;2022-09-09T07:12:12;18.10;99.90
14411;DHT22;7290;50.854;4.354;2022-09-09T07:14:38;18.10;99.90
14411;DHT22;7290;50.854;4.354;2022-09-09T07:17:04;18.10;99.90
14411;DHT22;7290;50.854;4.354;2022-09-09T07:19:31;18.30;99.90
14411;DHT22;7290;50.854;4.354;2022-09-09T07:21:57;18.30;99.90
14411;DHT22;7290;50.854;4.354;2022-09-09T07:24:24;18.50;99.90
14411;DHT22;7290;50.854;4.354;2022-09-09T07:26:50;18.20;99.90
14411;DHT22;7290;50.854;4.354;2022-09-09T07:29:17;18.10;99.90
14411;DHT22;7290;50.854;4.354;2022-09-09T07:31:43;18.20;99.90
14411;DHT22;7290;50.854;4.354;2022-09-09T07:34:09;18.30;99.90
14411;DHT22;7290;50.854;4.354;2022-09-09T07:36:39;18.10;99.90
14411;DHT22;7290;50.854;4.354;2022-09-09T07:39:07;18.00;99.90
14411;DHT22;7290;50.854;4.354;2022-09-09T07:41:36;18.00;99.90
14411;DHT22;7290;50.854;4.354;2022-09-09T07:44:07;18.10;99.90
14411;DHT22;7290;50.854;4.354;2022-09-09T07:46:34;18.10;99.90
14411;DHT22;7290;50.854;4.354;2022-09-09T07:49:01;18.10;99.90
14411;DHT22;7290;50.854;4.354;2022-09-09T07:51:29;18.10;99.90
14411;DHT22;7290;50.854;4.354;2022-09-09T07:53:57;18.30;99.90
14411;DHT22;7290;50.854;4.354;2022-09-09T07:56:25;18.30;99.90
14411;DHT22;7290;50.854;4.354;2022-09-09T07:58:53;18.40;99.90
14411;DHT22;7290;50.854;4.354;2022-09-09T08:01:22;18.60;99.90
14411;DHT22;7290;50.854;4.354;2022-09-09T08:03:53;18.90;99.90
14411;DHT22;7290;50.854;4.354;2022-09-09T08:06:20;18.90;99.90
14411;DHT22;7290;50.854;4.354;2022-09-09T08:08:50;19.30;99.90
14411;DHT22;7290;50.854;4.354;2022-09-09T08:11:17;19.20;99.90
14411;DHT22;7290;50.854;4.354;2022-09-09T08:13:44;19.60;99.90
14411;DHT22;7290;50.854;4.354;2022-09-09T08:16:12;19.90;99.90
14411;DHT22;7290;50.854;4.354;2022-09-09T08:18:39;19.90;99.90
14411;DHT22;7290;50.854;4.354;2022-09-09T08:21:07;19.70;99.90
14411;DHT22;7290;50.854;4.354;2022-09-09T08:23:35;19.40;99.90
14411;DHT22;7290;50.854;4.354;2022-09-09T08:26:11;19.10;99.90
14411;DHT22;7290;50.854;4.354;2022-09-09T08:28:38;19.10;99.90
14411;DHT22;7290;50.854;4.354;2022-09-09T08:31:09;19.10;99.90
14411;DHT22;7290;50.854;4.354;2022-09-09T08:33:36;19.10;99.90
14411;DHT22;7290;50.854;4.354;2022-09-09T08:36:04;19.10;99.90
14411;DHT22;7290;50.854;4.354;2022-09-09T08:38:31;19.00;99.90
14411;DHT22;7290;50.854;4.354;2022-09-09T08:41:05;19.10;99.90
14411;DHT22;7290;50.854;4.354;2022-09-09T08:43:35;18.80;99.90
14411;DHT22;7290;50.854;4.354;2022-09-09T08:46:07;18.80;99.90
14411;DHT22;7290;50.854;4.354;2022-09-09T08:48:49;18.90;99.90
14411;DHT22;7290;50.854;4.354;2022-09-09T08:51:18;18.60;99.90
14411;DHT22;7290;50.854;4.354;2022-09-09T08:53:48;18.50;99.90
14411;DHT22;7290;50.854;4.354;2022-09-09T08:56:18;18.50;99.90
14411;DHT22;7290;50.854;4.354;2022-09-09T08:58:48;18.50;99.90
14411;DHT22;7290;50.854;4.354;2022-09-09T09:01:27;18.50;99.90
14411;DHT22;7290;50.854;4.354;2022-09-09T09:04:02;18.70;99.90
14411;DHT22;7290;50.854;4.354;2022-09-09T09:06:40;18.80;99.90
14411;DHT22;7290;50.854;4.354;2022-09-09T09:09:14;18.80;99.90
14411;DHT22;7290;50.854;4.354;2022-09-09T09:11:47;18.80;99.90
14411;DHT22;7290;50.854;4.354;2022-09-09T09:14:18;18.50;99.90
14411;DHT22;7290;50.854;4.354;2022-09-09T09:16:52;18.30;99.90
14411;DHT22;7290;50.854;4.354;2022-09-09T09:19:19;18.20;99.90
14411;DHT22;7290;50.854;4.354;2022-09-09T09:21:51;18.30;99.90
14411;DHT22;7290;50.854;4.354;2022-09-09T09:24:20;18.40;99.90
14411;DHT22;7290;50.854;4.354;2022-09-09T09:26:48;18.50;99.90
14411;DHT22;7290;50.854;4.354;2022-09-09T09:29:17;18.50;99.90
14411;DHT22;7290;50.854;4.354;2022-09-09T09:31:46;18.60;99.90
14411;DHT22;7290;50.854;4.354;2022-09-09T09:34:15;18.70;99.90
14411;DHT22;7290;50.854;4.354;2022-09-09T09:36:46;18.70;99.90
14411;DHT22;7290;50.854;4.354;2022-09-09T09:39:24;18.60;99.90
14411;DHT22;7290;50.854;4.354;2022-09-09T09:41:51;18.40;99.90
14411;DHT22;7290;50.854;4.354;2022-09-09T09:44:26;18.40;99.90
14411;DHT22;7290;50.854;4.354;2022-09-09T09:46:52;18.30;99.90
14411;DHT22;7290;50.854;4.354;2022-09-09T09:49:19;18.20;99.90
14411;DHT22;7290;50.854;4.354;2022-09-09T09:51:46;18.10;99.90
14411;DHT22;7290;50.854;4.354;2022-09-09T09:54:21;18.30;99.90
14411;DHT22;7290;50.854;4.354;2022-09-09T09:56:49;18.60;99.90
14411;DHT22;7290;50.854;4.354;2022-09-09T09:59:23;18.60;99.90
14411;DHT22;7290;50.854;4.354;2022-09-09T10:01:50;19.00;99.90
14411;DHT22;7290;50.854;4.354;2022-09-09T10:04:17;19.10;99.90
14411;DHT22;7290;50.854;4.354;2022-09-09T10:06:46;19.10;99.90
14411;DHT22;7290;50.854;4.354;2022-09-09T10:09:22;18.90;99.90
14411;DHT22;7290;50.854;4.354;2022-09-09T10:11:55;18.70;99.90
14411;DHT22;7290;50.854;4.354;2022-09-09T10:14:31;18.70;99.90
14411;DHT22;7290;50.854;4.354;2022-09-09T10:17:11;18.70;99.90
14411;DHT22;7290;50.854;4.354;2022-09-09T10:19:44;18.70;99.90
14411;DHT22;7290;50.854;4.354;2022-09-09T10:22:27;18.70;99.90
14411;DHT22;7290;50.854;4.354;2022-09-09T10:25:23;18.60;99.90
14411;DHT22;7290;50.854;4.354;2022-09-09T10:28:10;18.80;99.90
14411;DHT22;7290;50.854;4.354;2022-09-09T10:30:49;19.00;99.90
14411;DHT22;7290;50.854;4.354;2022-09-09T10:33:26;19.80;99.90
14411;DHT22;7290;50.854;4.354;2022-09-09T10:36:01;20.70;99.90
14411;DHT22;7290;50.854;4.354;2022-09-09T10:38:31;20.70;99.90
14411;DHT22;7290;50.854;4.354;2022-09-09T10:41:11;21.10;99.90
14411;DHT22;7290;50.854;4.354;2022-09-09T10:44:06;21.30;99.90
14411;DHT22;7290;50.854;4.354;2022-09-09T10:46:48;21.90;99.90
14411;DHT22;7290;50.854;4.354;2022-09-09T10:49:20;22.10;99.90
14411;DHT22;7290;50.854;4.354;2022-09-09T10:51:56;21.90;99.90
14411;DHT22;7290;50.854;4.354;2022-09-09T10:54:35;21.80;99.90
14411;DHT22;7290;50.854;4.354;2022-09-09T10:57:11;21.70;99.90
14411;DHT22;7290;50.854;4.354;2022-09-09T10:59:42;21.40;99.90
14411;DHT22;7290;50.854;4.354;2022-09-09T11:02:14;21.60;99.90
14411;DHT22;7290;50.854;4.354;2022-09-09T11:04:47;21.70;99.90
14411;DHT22;7290;50.854;4.354;2022-09-09T11:07:25;21.70;99.90
14411;DHT22;7290;50.854;4.354;2022-09-09T11:09:58;21.80;99.90
14411;DHT22;7290;50.854;4.354;2022-09-09T11:12:27;21.80;99.90
14411;DHT22;7290;50.854;4.354;2022-09-09T11:14:57;21.50;99.90
14411;DHT22;7290;50.854;4.354;2022-09-09T11:17:28;21.10;99.90
14411;DHT22;7290;50.854;4.354;2022-09-09T11:19:59;21.00;99.90
14411;DHT22;7290;50.854;4.354;2022-09-09T11:22:29;21.00;99.90
14411;DHT22;7290;50.854;4.354;2022-09-09T11:25:00;21.10;99.90
14411;DHT22;7290;50.854;4.354;2022-09-09T11:27:32;20.80;99.90
14411;DHT22;7290;50.854;4.354;2022-09-09T11:30:16;20.80;99.90
14411;DHT22;7290;50.854;4.354;2022-09-09T11:33:12;20.60;99.90
14411;DHT22;7290;50.854;4.354;2022-09-09T11:35:52;20.30;99.90
14411;DHT22;7290;50.854;4.354;2022-09-09T11:38:25;20.30;99.90
14411;DHT22;7290;50.854;4.354;2022-09-09T11:40:57;20.10;99.90
14411;DHT22;7290;50.854;4.354;2022-09-09T11:43:28;20.10;99.90
14411;DHT22;7290;50.854;4.354;2022-09-09T11:45:57;20.00;99.90
14411;DHT22;7290;50.854;4.354;2022-09-09T11:48:28;19.90;99.90
14411;DHT22;7290;50.854;4.354;2022-09-09T11:50:59;19.90;99.90
14411;DHT22;7290;50.854;4.354;2022-09-09T11:53:25;20.10;99.90
14411;DHT22;7290;50.854;4.354;2022-09-09T11:56:10;20.10;99.90
14411;DHT22;7290;50.854;4.354;2022-09-09T11:58:43;19.90;99.90
14411;DHT22;7290;50.854;4.354;2022-09-09T12:04:13;19.50;99.90
14411;DHT22;7290;50.854;4.354;2022-09-09T12:06:44;19.70;99.90
14411;DHT22;7290;50.854;4.354;2022-09-09T12:09:19;19.80;99.90
14411;DHT22;7290;50.854;4.354;2022-09-09T12:11:49;19.70;99.90
14411;DHT22;7290;50.854;4.354;2022-09-09T12:14:35;19.70;99.90
14411;DHT22;7290;50.854;4.354;2022-09-09T12:17:10;19.60;99.90
14411;DHT22;7290;50.854;4.354;2022-09-09T12:19:43;19.60;99.90
14411;DHT22;7290;50.854;4.354;2022-09-09T12:22:19;19.60;99.90
14411;DHT22;7290;50.854;4.354;2022-09-09T12:24:53;19.60;99.90
14411;DHT22;7290;50.854;4.354;2022-09-09T12:27:26;19.90;99.90
14411;DHT22;7290;50.854;4.354;2022-09-09T12:29:57;20.20;99.90
14411;DHT22;7290;50.854;4.354;2022-09-09T12:32:26;20.40;99.90
14411;DHT22;7290;50.854;4.354;2022-09-09T12:34:55;20.50;99.90
14411;DHT22;7290;50.854;4.354;2022-09-09T12:37:27;20.30;99.90
14411;DHT22;7290;50.854;4.354;2022-09-09T12:39:57;20.20;99.90
14411;DHT22;7290;50.854;4.354;2022-09-09T12:42:25;20.30;99.90
14411;DHT22;7290;50.854;4.354;2022-09-09T12:44:53;20.50;99.90
14411;DHT22;7290;50.854;4.354;2022-09-09T12:47:21;20.60;99.90
14411;DHT22;7290;50.854;4.354;2022-09-09T12:49:49;20.90;99.90
14411;DHT22;7290;50.854;4.354;2022-09-09T12:52:20;20.90;99.90
14411;DHT22;7290;50.854;4.354;2022-09-09T12:54:48;20.60;99.90
14411;DHT22;7290;50.854;4.354;2022-09-09T12:57:17;20.60;99.90
14411;DHT22;7290;50.854;4.354;2022-09-09T12:59:44;20.70;99.90
14411;DHT22;7290;50.854;4.354;2022-09-09T13:02:18;20.90;99.90
14411;DHT22;7290;50.854;4.354;2022-09-09T13:04:44;20.90;99.90
14411;DHT22;7290;50.854;4.354;2022-09-09T13:07:12;20.70;99.90
14411;DHT22;7290;50.854;4.354;2022-09-09T13:09:42;20.50;99.90
14411;DHT22;7290;50.854;4.354;2022-09-09T13:12:13;20.50;99.90
14411;DHT22;7290;50.854;4.354;2022-09-09T13:14:44;20.50;99.90
14411;DHT22;7290;50.854;4.354;2022-09-09T13:17:20;20.50;99.90
14411;DHT22;7290;50.854;4.354;2022-09-09T13:19:47;20.70;99.90
14411;DHT22;7290;50.854;4.354;2022-09-09T13:22:21;20.70;99.90
14411;DHT22;7290;50.854;4.354;2022-09-09T13:24:47;20.60;99.90
14411;DHT22;7290;50.854;4.354;2022-09-09T13:27:28;20.80;99.90
14411;DHT22;7290;50.854;4.354;2022-09-09T13:29:55;20.90;99.90
14411;DHT22;7290;50.854;4.354;2022-09-09T13:32:23;20.90;99.90
14411;DHT22;7290;50.854;4.354;2022-09-09T13:34:53;20.80;99.90
14411;DHT22;7290;50.854;4.354;2022-09-09T13:37:23;20.90;99.90
14411;DHT22;7290;50.854;4.354;2022-09-09T13:39:52;21.10;99.90
14411;DHT22;7290;50.854;4.354;2022-09-09T13:42:25;21.00;99.90
14411;DHT22;7290;50.854;4.354;2022-09-09T13:44:51;21.20;99.90
14411;DHT22;7290;50.854;4.354;2022-09-09T13:47:19;21.10;99.90
14411;DHT22;7290;50.854;4.354;2022-09-09T13:49:46;21.20;99.90
14411;DHT22;7290;50.854;4.354;2022-09-09T13:52:13;21.10;99.90
14411;DHT22;7290;50.854;4.354;2022-09-09T13:54:41;21.20;99.90
14411;DHT22;7290;50.854;4.354;2022-09-09T13:57:15;21.30;99.90
14411;DHT22;7290;50.854;4.354;2022-09-09T13:59:41;21.30;99.90
14411;DHT22;7290;50.854;4.354;2022-09-09T14:02:08;21.20;99.90
14411;DHT22;7290;50.854;4.354;2022-09-09T14:04:34;21.20;99.90
14411;DHT22;7290;50.854;4.354;2022-09-09T14:07:01;21.30;99.90
14411;DHT22;7290;50.854;4.354;2022-09-09T14:09:27;21.40;99.90
14411;DHT22;7290;50.854;4.354;2022-09-09T14:11:53;21.40;99.90
14411;DHT22;7290;50.854;4.354;2022-09-09T14:14:20;21.50;99.90
14411;DHT22;7290;50.854;4.354;2022-09-09T14:16:46;21.50;99.90
14411;DHT22;7290;50.854;4.354;2022-09-09T14:19:12;21.40;99.90
14411;DHT22;7290;50.854;4.354;2022-09-09T14:21:39;21.20;99.90
14411;DHT22;7290;50.854;4.354;2022-09-09T14:24:05;21.00;99.90
14411;DHT22;7290;50.854;4.354;2022-09-09T14:26:31;21.00;99.90
14411;DHT22;7290;50.854;4.354;2022-09-09T14:28:58;20.90;99.90
14411;DHT22;7290;50.854;4.354;2022-09-09T14:31:24;20.80;99.90
14411;DHT22;7290;50.854;4.354;2022-09-09T14:33:50;21.00;99.90
14411;DHT22;7290;50.854;4.354;2022-09-09T14:36:16;21.20;99.90
14411;DHT22;7290;50.854;4.354;2022-09-09T14:38:43;21.30;99.90
14411;DHT22;7290;50.854;4.354;2022-09-09T14:41:10;21.20;99.90
14411;DHT22;7290;50.854;4.354;2022-09-09T14:43:37;21.30;99.90
14411;DHT22;7290;50.854;4.354;2022-09-09T14:46:07;21.20;99.90
14411;DHT22;7290;50.854;4.354;2022-09-09T14:48:34;21.20;99.90
14411;DHT22;7290;50.854;4.354;2022-09-09T14:51:05;21.20;99.90
14411;DHT22;7290;50.854;4.354;2022-09-09T14:53:31;21.50;99.90
14411;DHT22;7290;50.854;4.354;2022-09-09T14:56:04;21.50;99.90
14411;DHT22;7290;50.854;4.354;2022-09-09T14:58:31;21.40;99.90
14411;DHT22;7290;50.854;4.354;2022-09-09T15:01:02;21.40;99.90
14411;DHT22;7290;50.854;4.354;2022-09-09T15:03:28;21.20;99.90
14411;DHT22;7290;50.854;4.354;2022-09-09T15:05:54;21.20;99.90
14411;DHT22;7290;50.854;4.354;2022-09-09T15:08:20;21.20;99.90
14411;DHT22;7290;50.854;4.354;2022-09-09T15:10:46;21.10;99.90
14411;DHT22;7290;50.854;4.354;2022-09-09T15:13:15;21.10;99.90
14411;DHT22;7290;50.854;4.354;2022-09-09T15:15:42;21.20;99.90
14411;DHT22;7290;50.854;4.354;2022-09-09T15:18:09;21.10;99.90
14411;DHT22;7290;50.854;4.354;2022-09-09T15:20:35;21.00;99.90
14411;DHT22;7290;50.854;4.354;2022-09-09T15:23:02;21.10;99.90
14411;DHT22;7290;50.854;4.354;2022-09-09T15:25:28;21.00;99.90
14411;DHT22;7290;50.854;4.354;2022-09-09T15:27:55;21.00;99.90
14411;DHT22;7290;50.854;4.354;2022-09-09T15:30:22;20.90;99.90
14411;DHT22;7290;50.854;4.354;2022-09-09T15:32:48;20.80;99.90
14411;DHT22;7290;50.854;4.354;2022-09-09T15:35:14;20.70;99.90
14411;DHT22;7290;50.854;4.354;2022-09-09T15:37:41;20.70;99.90
14411;DHT22;7290;50.854;4.354;2022-09-09T15:40:08;20.70;99.90
14411;DHT22;7290;50.854;4.354;2022-09-09T15:42:34;20.70;99.90
14411;DHT22;7290;50.854;4.354;2022-09-09T15:45:00;20.70;99.90
14411;DHT22;7290;50.854;4.354;2022-09-09T15:47:27;20.80;99.90
14411;DHT22;7290;50.854;4.354;2022-09-09T15:49:53;21.20;99.90
14411;DHT22;7290;50.854;4.354;2022-09-09T15:52:19;21.90;99.90
14411;DHT22;7290;50.854;4.354;2022-09-09T15:54:45;22.00;99.90
14411;DHT22;7290;50.854;4.354;2022-09-09T15:57:12;21.80;99.90
14411;DHT22;7290;50.854;4.354;2022-09-09T15:59:39;21.80;99.90
14411;DHT22;7290;50.854;4.354;2022-09-09T16:02:05;21.40;99.90
14411;DHT22;7290;50.854;4.354;2022-09-09T16:04:32;21.20;99.90